createdAt,value
2024-02-27T00:00:56.562Z,9.37
2024-02-27T00:04:11.037Z,9.29
2024-02-27T00:07:25.326Z,9.20
2024-02-27T00:10:38.084Z,9.15
2024-02-27T00:13:50.579Z,9.27
2024-02-27T00:17:03.362Z,9.35
2024-02-27T00:20:15.919Z,9.43
2024-02-27T00:23:28.718Z,9.33
2024-02-27T00:26:41.170Z,9.27
2024-02-27T00:29:55.110Z,9.37
2024-02-27T00:33:07.772Z,9.49
2024-02-27T00:36:20.574Z,9.50
2024-02-27T00:39:33.051Z,9.57
2024-02-27T00:42:45.786Z,9.80
2024-02-27T00:45:58.183Z,10.01
2024-02-27T00:49:11.056Z,10.17
2024-02-27T00:52:23.533Z,10.12
2024-02-27T00:55:36.238Z,9.99
2024-02-27T00:58:48.650Z,10.08
2024-02-27T01:02:01.324Z,10.20
2024-02-27T01:05:14.256Z,10.05
2024-02-27T01:08:27.121Z,9.80
2024-02-27T01:11:39.517Z,9.88
2024-02-27T01:14:52.180Z,9.93
2024-02-27T01:18:04.895Z,9.83
2024-02-27T01:21:18.646Z,9.96
2024-02-27T01:24:31.351Z,10.03
2024-02-27T01:27:44.367Z,10.13
2024-02-27T01:30:56.868Z,10.39
2024-02-27T01:34:09.740Z,10.53
2024-02-27T01:37:22.372Z,10.34
2024-02-27T01:40:35.102Z,10.42
2024-02-27T01:43:47.501Z,10.64
2024-02-27T01:47:01.254Z,10.74
2024-02-27T01:50:16.145Z,10.44
2024-02-27T01:53:29.002Z,10.49
2024-02-27T01:56:41.449Z,10.41
2024-02-27T01:59:54.138Z,10.57
2024-02-27T02:03:08.248Z,10.57
2024-02-27T02:06:21.205Z,10.87
2024-02-27T02:09:33.841Z,10.86
2024-02-27T02:12:46.639Z,11.01
2024-02-27T02:15:59.363Z,10.98
2024-02-27T02:19:12.140Z,11.05
2024-02-27T02:22:24.606Z,10.99
2024-02-27T02:25:37.980Z,10.99
2024-02-27T02:28:50.337Z,11.13
2024-02-27T02:32:04.444Z,11.14
2024-02-27T02:35:17.028Z,11.10
2024-02-27T02:38:29.734Z,10.92
2024-02-27T02:41:42.122Z,10.93
2024-02-27T02:44:54.796Z,10.93
2024-02-27T02:48:07.887Z,11.03
2024-02-27T02:51:20.842Z,11.03
2024-02-27T02:54:33.368Z,11.00
2024-02-27T02:57:46.156Z,11.02
2024-02-27T03:00:58.567Z,11.04
2024-02-27T03:04:11.282Z,11.10
2024-02-27T03:07:23.705Z,11.25
2024-02-27T03:10:36.490Z,11.11
2024-02-27T03:13:48.838Z,11.14
2024-02-27T03:17:01.578Z,11.07
2024-02-27T03:20:14.102Z,11.12
2024-02-27T03:23:26.849Z,11.08
2024-02-27T03:26:39.213Z,11.04
2024-02-27T03:29:51.862Z,11.01
2024-02-27T03:33:04.560Z,10.99
2024-02-27T03:36:17.406Z,11.07
2024-02-27T03:39:30.322Z,10.91
2024-02-27T03:42:43.088Z,10.74
2024-02-27T03:45:55.523Z,10.81
2024-02-27T03:49:08.205Z,10.72
2024-02-27T03:52:20.568Z,10.62
2024-02-27T03:55:33.216Z,10.73
2024-02-27T03:58:47.349Z,10.78
2024-02-27T04:01:59.998Z,10.61
2024-02-27T04:05:12.753Z,10.60
2024-02-27T04:08:25.185Z,10.66
2024-02-27T04:11:37.841Z,10.70
2024-02-27T04:14:50.228Z,10.50
2024-02-27T04:18:03.328Z,10.54
2024-02-27T04:21:15.807Z,10.41
2024-02-27T04:24:28.505Z,10.41
2024-02-27T04:27:41.164Z,10.19
2024-02-27T04:30:53.909Z,10.11
2024-02-27T04:34:06.352Z,10.08
2024-02-27T04:37:19.048Z,10.03
2024-02-27T04:40:31.479Z,10.16
2024-02-27T04:43:44.143Z,10.20
2024-02-27T04:46:56.528Z,10.26
2024-02-27T04:50:09.609Z,10.25
2024-02-27T04:53:21.952Z,10.22
2024-02-27T04:56:34.609Z,10.18
2024-02-27T04:59:47.008Z,10.23
2024-02-27T05:02:59.698Z,10.22
2024-02-27T05:06:12.162Z,10.32
2024-02-27T05:09:25.087Z,10.16
2024-02-27T05:12:37.577Z,10.21
2024-02-27T05:15:51.411Z,9.99
2024-02-27T05:19:03.895Z,10.17
2024-02-27T05:22:16.635Z,10.24
2024-02-27T05:25:29.041Z,10.22
2024-02-27T05:28:41.925Z,10.20
2024-02-27T05:31:54.314Z,10.16
2024-02-27T05:35:07.418Z,9.99
2024-02-27T05:38:19.823Z,10.01
2024-02-27T05:41:32.524Z,10.04
2024-02-27T05:44:44.961Z,10.20
2024-02-27T05:47:57.777Z,10.25
2024-02-27T05:51:10.461Z,10.19
2024-02-27T05:54:23.198Z,10.21
2024-02-27T05:57:35.645Z,10.23
2024-02-27T06:00:48.434Z,10.31
2024-02-27T06:04:01.295Z,10.41
2024-02-27T06:07:13.860Z,10.27
2024-02-27T06:10:26.617Z,10.41
2024-02-27T06:13:39.039Z,10.51
2024-02-27T06:16:52.313Z,10.50
2024-02-27T06:20:13.330Z,10.50
2024-02-27T06:23:32.618Z,10.51
2024-02-27T06:26:45.216Z,10.59
2024-02-27T06:29:57.943Z,10.63
2024-02-27T06:33:10.504Z,10.71
2024-02-27T06:36:24.747Z,10.64
2024-02-27T06:39:39.378Z,10.81
2024-02-27T06:42:52.160Z,10.88
2024-02-27T06:46:07.233Z,10.99
2024-02-27T06:49:23.097Z,10.98
2024-02-27T06:52:36.747Z,11.09
2024-02-27T06:55:49.510Z,11.02
2024-02-27T06:59:01.944Z,11.13
2024-02-27T07:02:14.985Z,11.12
2024-02-27T07:05:32.443Z,10.89
2024-02-27T07:08:53.281Z,11.21
2024-02-27T07:12:06.084Z,11.30
2024-02-27T07:15:19.547Z,11.26
2024-02-27T07:18:32.197Z,11.43
2024-02-27T07:21:44.971Z,11.36
2024-02-27T07:24:57.443Z,11.37
2024-02-27T07:28:16.951Z,11.56
2024-02-27T07:31:33.069Z,11.58
2024-02-27T07:34:47.971Z,11.28
2024-02-27T07:38:01.634Z,11.31
2024-02-27T07:41:14.616Z,11.60
2024-02-27T07:44:26.979Z,11.81
2024-02-27T07:47:41.754Z,11.93
2024-02-27T07:50:56.945Z,12.01
2024-02-27T07:54:09.688Z,12.10
2024-02-27T07:57:25.954Z,11.78
2024-02-27T08:00:38.894Z,12.00
2024-02-27T08:03:53.094Z,12.33
2024-02-27T08:07:05.794Z,12.68
2024-02-27T08:10:18.677Z,12.42
2024-02-27T08:13:32.143Z,12.74
2024-02-27T08:16:45.121Z,12.91
2024-02-27T08:19:57.946Z,13.29
2024-02-27T08:23:11.212Z,13.41
2024-02-27T08:26:23.647Z,13.33
2024-02-27T08:29:36.622Z,13.61
2024-02-27T08:32:50.775Z,13.45
2024-02-27T08:36:04.747Z,13.28
2024-02-27T08:39:17.196Z,13.11
2024-02-27T08:42:29.993Z,13.54
2024-02-27T08:45:43.344Z,13.62
2024-02-27T08:48:58.469Z,14.08
2024-02-27T08:52:10.946Z,13.94
2024-02-27T08:55:26.388Z,13.84
2024-02-27T08:58:38.853Z,14.18
2024-02-27T09:01:51.614Z,14.35
2024-02-27T09:05:04.910Z,14.26
2024-02-27T09:08:18.108Z,14.37
2024-02-27T09:11:31.256Z,14.17
2024-02-27T09:14:44.069Z,14.18
2024-02-27T09:17:56.574Z,14.24
2024-02-27T09:21:13.360Z,14.20
2024-02-27T09:24:25.827Z,13.95
2024-02-27T09:27:39.996Z,14.09
2024-02-27T09:30:52.431Z,14.47
2024-02-27T09:34:08.474Z,14.50
2024-02-27T09:37:24.571Z,14.71
2024-02-27T09:40:42.758Z,14.66
2024-02-27T09:43:58.966Z,14.75
2024-02-27T09:47:12.576Z,14.29
2024-02-27T09:50:25.167Z,14.90
2024-02-27T09:53:38.196Z,14.90
2024-02-27T09:56:51.248Z,14.97
2024-02-27T10:00:04.722Z,15.05
2024-02-27T10:03:24.583Z,15.13
2024-02-27T10:06:37.354Z,15.39
2024-02-27T10:09:49.814Z,15.29
2024-02-27T10:13:02.634Z,15.48
2024-02-27T10:16:15.155Z,15.40
2024-02-27T10:19:35.392Z,15.23
2024-02-27T10:23:00.067Z,15.35
2024-02-27T10:26:13.788Z,15.20
2024-02-27T10:29:35.593Z,15.65
2024-02-27T10:32:48.584Z,15.59
2024-02-27T10:36:02.001Z,15.51
2024-02-27T10:39:16.043Z,15.77
2024-02-27T10:42:29.556Z,16.09
2024-02-27T10:45:42.385Z,15.83
2024-02-27T10:48:54.989Z,15.99
2024-02-27T10:52:07.882Z,16.35
2024-02-27T10:55:23.470Z,16.42
2024-02-27T10:58:36.477Z,16.63
2024-02-27T11:01:49.412Z,16.89
2024-02-27T11:05:02.381Z,16.68
2024-02-27T11:08:14.847Z,16.46
2024-02-27T11:11:27.637Z,16.51
2024-02-27T11:14:44.772Z,16.59
2024-02-27T11:18:01.720Z,16.53
2024-02-27T11:21:25.020Z,16.73
2024-02-27T11:24:37.854Z,17.09
2024-02-27T11:27:51.169Z,16.89
2024-02-27T11:31:04.031Z,17.21
2024-02-27T11:34:28.094Z,17.42
2024-02-27T11:37:46.822Z,17.50
2024-02-27T11:40:59.966Z,17.71
2024-02-27T11:44:13.625Z,17.80
2024-02-27T11:47:48.069Z,17.83
2024-02-27T11:51:01.132Z,17.92
2024-02-27T11:54:14.812Z,17.36
2024-02-27T11:57:30.618Z,17.54
2024-02-27T12:00:55.301Z,17.45
2024-02-27T12:04:13.446Z,18.12
2024-02-27T12:07:30.534Z,18.01
2024-02-27T12:10:43.677Z,18.41
2024-02-27T12:13:58.952Z,18.11
2024-02-27T12:17:11.649Z,18.31
2024-02-27T12:20:24.099Z,18.48
2024-02-27T12:23:37.365Z,18.42
2024-02-27T12:26:58.219Z,18.59
2024-02-27T12:30:16.471Z,18.54
2024-02-27T12:33:29.262Z,18.69
2024-02-27T12:36:43.817Z,18.41
2024-02-27T12:39:56.556Z,18.62
2024-02-27T12:43:09.298Z,18.71
2024-02-27T12:46:25.106Z,18.95
2024-02-27T12:49:39.737Z,19.26
2024-02-27T12:53:06.135Z,19.14
2024-02-27T12:56:24.200Z,19.36
2024-02-27T12:59:39.907Z,19.61
2024-02-27T13:02:57.129Z,19.50
2024-02-27T13:06:11.889Z,19.47
2024-02-27T13:09:26.232Z,19.24
2024-02-27T13:12:38.712Z,18.94
2024-02-27T13:15:51.672Z,19.15
2024-02-27T13:19:04.414Z,19.30
2024-02-27T13:22:17.222Z,19.13
2024-02-27T13:25:29.746Z,18.97
2024-02-27T13:28:42.448Z,18.76
2024-02-27T13:31:54.864Z,18.68
2024-02-27T13:35:07.828Z,18.81
2024-02-27T13:38:20.312Z,19.23
2024-02-27T13:41:34.485Z,19.08
2024-02-27T13:44:46.932Z,19.22
2024-02-27T13:47:59.681Z,18.91
2024-02-27T13:51:12.158Z,19.07
2024-02-27T13:54:25.415Z,19.65
2024-02-27T13:57:38.033Z,19.50
2024-02-27T14:00:51.172Z,19.62
2024-02-27T14:04:04.119Z,19.67
2024-02-27T14:07:16.816Z,19.45
2024-02-27T14:10:29.662Z,19.34
2024-02-27T14:13:42.087Z,19.07
2024-02-27T14:16:54.769Z,19.03
2024-02-27T14:20:07.495Z,18.91
2024-02-27T14:23:20.268Z,18.87
2024-02-27T14:26:35.872Z,18.73
2024-02-27T14:29:49.381Z,18.36
2024-02-27T14:33:02.246Z,17.82
2024-02-27T14:36:15.104Z,17.42
2024-02-27T14:39:27.699Z,17.55
2024-02-27T14:42:40.535Z,17.67
2024-02-27T14:45:54.240Z,17.23
2024-02-27T14:49:07.091Z,17.22
2024-02-27T14:52:19.507Z,17.23
2024-02-27T14:55:32.168Z,17.15
2024-02-27T14:58:44.556Z,17.21
2024-02-27T15:02:03.321Z,17.02
2024-02-27T15:05:17.838Z,17.21
2024-02-27T15:08:30.773Z,17.14
2024-02-27T15:11:43.282Z,17.15
2024-02-27T15:14:55.991Z,17.28
2024-02-27T15:18:08.624Z,17.26
2024-02-27T15:21:21.482Z,17.04
2024-02-27T15:24:34.069Z,16.82
2024-02-27T15:27:46.816Z,16.79
2024-02-27T15:30:59.292Z,16.94
2024-02-27T15:34:12.142Z,16.90
2024-02-27T15:37:24.552Z,16.97
2024-02-27T15:40:37.254Z,16.77
2024-02-27T15:43:49.638Z,16.73
2024-02-27T15:47:02.457Z,16.62
2024-02-27T15:50:14.852Z,16.35
2024-02-27T15:53:27.694Z,16.26
2024-02-27T15:56:40.081Z,16.20
2024-02-27T15:59:52.745Z,15.91
2024-02-27T16:03:32.281Z,15.76
2024-02-27T16:07:15.600Z,15.75
2024-02-27T16:10:28.096Z,15.81
2024-02-27T16:13:40.994Z,15.67
2024-02-27T16:16:53.426Z,15.83
2024-02-27T16:20:08.925Z,15.76
2024-02-27T16:23:26.328Z,15.63
2024-02-27T16:26:39.365Z,15.44
2024-02-27T16:29:51.789Z,15.52
2024-02-27T16:33:04.891Z,15.38
2024-02-27T16:36:17.485Z,15.21
2024-02-27T16:39:30.892Z,15.08
2024-02-27T16:42:43.373Z,15.02
2024-02-27T16:45:56.135Z,14.96
2024-02-27T16:49:08.601Z,14.77
2024-02-27T16:52:22.378Z,14.71
2024-02-27T16:55:37.310Z,14.70
2024-02-27T16:58:50.075Z,14.79
2024-02-27T17:02:02.769Z,14.61
2024-02-27T17:05:15.516Z,14.50
2024-02-27T17:08:27.892Z,14.53
2024-02-27T17:11:40.637Z,14.52
2024-02-27T17:14:53.196Z,14.38
2024-02-27T17:18:06.003Z,14.19
2024-02-27T17:21:18.436Z,14.06
2024-02-27T17:24:31.099Z,13.83
2024-02-27T17:27:43.560Z,13.79
2024-02-27T17:30:56.387Z,13.64
2024-02-27T17:34:09.265Z,13.54
2024-02-27T17:37:22.104Z,13.43
2024-02-27T17:40:34.529Z,13.31
2024-02-27T17:43:47.211Z,13.30
2024-02-27T17:46:59.747Z,13.20
2024-02-27T17:50:12.442Z,12.98
2024-02-27T17:53:24.875Z,12.96
2024-02-27T17:56:37.550Z,12.86
2024-02-27T17:59:50.054Z,12.83
2024-02-27T18:03:03.193Z,12.74
2024-02-27T18:06:15.992Z,12.75
2024-02-27T18:09:28.505Z,12.66
2024-02-27T18:12:41.220Z,12.68
2024-02-27T18:15:53.949Z,12.66
2024-02-27T18:19:06.815Z,12.63
2024-02-27T18:22:19.290Z,12.58
2024-02-27T18:25:33.558Z,12.50
2024-02-27T18:28:46.033Z,12.43
2024-02-27T18:31:58.688Z,12.42
2024-02-27T18:35:13.708Z,12.35
2024-02-27T18:38:28.131Z,12.34
2024-02-27T18:41:40.489Z,12.40
2024-02-27T18:44:53.163Z,12.44
2024-02-27T18:48:09.340Z,12.53
2024-02-27T18:51:22.130Z,12.75
2024-02-27T18:54:34.562Z,12.68
2024-02-27T18:57:47.574Z,12.69
2024-02-27T19:01:00.151Z,12.69
2024-02-27T19:04:12.934Z,12.82
2024-02-27T19:07:25.537Z,12.64
2024-02-27T19:10:38.809Z,12.46
2024-02-27T19:13:51.532Z,12.44
2024-02-27T19:17:05.368Z,12.54
2024-02-27T19:20:17.778Z,12.51
2024-02-27T19:23:30.455Z,12.44
2024-02-27T19:26:42.830Z,12.47
2024-02-27T19:29:57.396Z,12.50
2024-02-27T19:33:09.922Z,12.54
2024-02-27T19:36:23.026Z,12.55
2024-02-27T19:39:36.758Z,12.62
2024-02-27T19:42:49.510Z,12.60
2024-02-27T19:46:01.933Z,12.62
2024-02-27T19:49:14.869Z,12.68
2024-02-27T19:52:28.169Z,12.66
2024-02-27T19:55:40.863Z,12.49
2024-02-27T19:58:53.475Z,12.57
2024-02-27T20:02:06.417Z,12.58
2024-02-27T20:05:19.096Z,12.44
2024-02-27T20:08:32.104Z,12.42
2024-02-27T20:11:45.689Z,12.38
2024-02-27T20:14:58.139Z,12.33
2024-02-27T20:18:11.196Z,12.22
2024-02-27T20:21:24.079Z,12.11
2024-02-27T20:24:40.909Z,12.11
2024-02-27T20:27:53.340Z,12.02
2024-02-27T20:31:06.098Z,12.09
2024-02-27T20:34:18.521Z,12.09
2024-02-27T20:37:31.191Z,11.97
2024-02-27T20:40:44.310Z,11.98
2024-02-27T20:43:56.946Z,12.09
2024-02-27T20:47:09.613Z,12.07
2024-02-27T20:50:22.350Z,12.16
2024-02-27T20:53:34.759Z,12.24
2024-02-27T20:56:47.411Z,12.20
2024-02-27T20:59:59.766Z,12.32
2024-02-27T21:03:12.486Z,12.33
2024-02-27T21:06:25.030Z,12.41
2024-02-27T21:09:37.763Z,12.40
2024-02-27T21:12:50.317Z,12.35
2024-02-27T21:16:05.234Z,12.36
2024-02-27T21:19:18.022Z,12.19
2024-02-27T21:22:30.662Z,12.27
2024-02-27T21:25:43.509Z,12.29
2024-02-27T21:28:56.314Z,12.29
2024-02-27T21:32:08.738Z,12.24
2024-02-27T21:35:21.381Z,12.05
2024-02-27T21:38:33.750Z,12.03
2024-02-27T21:41:46.449Z,12.08
2024-02-27T21:44:58.816Z,12.14
2024-02-27T21:48:11.646Z,12.24
2024-02-27T21:51:24.147Z,12.20
2024-02-27T21:54:37.056Z,12.24
2024-02-27T21:57:50.311Z,12.11
2024-02-27T22:01:03.223Z,12.03
2024-02-27T22:04:15.862Z,12.15
2024-02-27T22:07:28.251Z,12.23
2024-02-27T22:10:40.942Z,12.21
2024-02-27T22:13:53.386Z,11.95
2024-02-27T22:17:06.068Z,11.96
2024-02-27T22:20:18.533Z,11.97
2024-02-27T22:23:31.243Z,11.89
2024-02-27T22:26:43.681Z,11.82
2024-02-27T22:29:56.441Z,11.86
2024-02-27T22:33:11.467Z,11.89
2024-02-27T22:36:25.754Z,11.93
2024-02-27T22:39:38.268Z,12.00
2024-02-27T22:42:50.969Z,11.97
2024-02-27T22:46:07.010Z,12.00
2024-02-27T22:49:19.710Z,11.96
2024-02-27T22:52:32.379Z,11.85
2024-02-27T22:55:45.115Z,11.66
2024-02-27T22:58:57.493Z,11.63
2024-02-27T23:02:10.153Z,11.62
2024-02-27T23:05:23.034Z,11.71
2024-02-27T23:08:35.685Z,11.63
2024-02-27T23:11:48.134Z,11.68
2024-02-27T23:15:00.789Z,11.66
2024-02-27T23:18:14.129Z,11.65
2024-02-27T23:21:27.958Z,11.64
2024-02-27T23:24:40.388Z,11.46
2024-02-27T23:27:53.181Z,11.54
2024-02-27T23:31:05.689Z,11.49
2024-02-27T23:34:18.376Z,11.62
2024-02-27T23:37:30.747Z,11.58
2024-02-27T23:40:45.869Z,11.35
2024-02-27T23:43:58.279Z,11.36
2024-02-27T23:47:10.995Z,11.45
2024-02-27T23:50:23.498Z,11.38
2024-02-27T23:53:38.463Z,11.32
2024-02-27T23:56:50.893Z,11.22
